createdAt,value
2023-05-07T00:02:16.909Z,101444.31
2023-05-07T00:04:45.803Z,101442.84
2023-05-07T00:07:15.088Z,101441.44
2023-05-07T00:09:44.371Z,101449.50
2023-05-07T00:12:13.682Z,101446.81
2023-05-07T00:14:42.930Z,101440.00
2023-05-07T00:17:11.708Z,101440.00
2023-05-07T00:19:40.729Z,101450.00
2023-05-07T00:22:08.954Z,101443.91
2023-05-07T00:24:37.441Z,101450.00
2023-05-07T00:27:06.101Z,101448.56
2023-05-07T00:29:35.074Z,101443.19
2023-05-07T00:32:03.620Z,101443.19
2023-05-07T00:34:32.035Z,101435.69
2023-05-07T00:37:00.301Z,101436.91
2023-05-07T00:39:29.387Z,101428.16
2023-05-07T00:41:58.843Z,101431.56
2023-05-07T00:44:27.859Z,101423.50
2023-05-07T00:46:56.306Z,101428.88
2023-05-07T00:49:24.626Z,101420.66
2023-05-07T00:51:53.432Z,101418.16
2023-05-07T00:54:22.320Z,101409.94
2023-05-07T00:56:51.342Z,101414.56
2023-05-07T00:59:20.375Z,101413.84
2023-05-07T01:01:49.365Z,101411.19
2023-05-07T01:04:18.010Z,101407.03
2023-05-07T01:06:47.356Z,101416.34
2023-05-07T01:09:17.257Z,101417.75
2023-05-07T01:11:46.078Z,101411.69
2023-05-07T01:14:14.535Z,101402.22
2023-05-07T01:16:43.396Z,101410.97
2023-05-07T01:19:13.001Z,101403.44
2023-05-07T01:21:41.963Z,101408.13
2023-05-07T01:24:10.537Z,101412.75
2023-05-07T01:26:39.979Z,101412.03
2023-05-07T01:29:08.838Z,101405.94
2023-05-07T01:31:37.277Z,101399.88
2023-05-07T01:34:06.227Z,101399.66
2023-05-07T01:36:34.770Z,101400.38
2023-05-07T01:39:03.250Z,101405.25
2023-05-07T01:41:32.062Z,101408.44
2023-05-07T01:44:01.451Z,101407.69
2023-05-07T01:46:30.406Z,101402.34
2023-05-07T01:48:59.370Z,101396.97
2023-05-07T01:51:28.335Z,101401.63
2023-05-07T01:53:56.968Z,101403.59
2023-05-07T01:56:25.690Z,101402.16
2023-05-07T01:58:54.608Z,101406.28
2023-05-07T02:01:24.002Z,101411.63
2023-05-07T02:03:53.502Z,101410.22
2023-05-07T02:06:26.460Z,101412.19
2023-05-07T02:08:59.898Z,101419.50
2023-05-07T02:11:28.236Z,101414.13
2023-05-07T02:13:57.199Z,101412.88
2023-05-07T02:16:25.709Z,101418.03
2023-05-07T02:18:55.553Z,101412.69
2023-05-07T02:21:23.777Z,101412.69
2023-05-07T02:23:52.402Z,101413.41
2023-05-07T02:26:21.106Z,101414.13
2023-05-07T02:28:49.744Z,101407.31
2023-05-07T02:31:19.190Z,101407.31
2023-05-07T02:33:48.173Z,101401.97
2023-05-07T02:36:17.285Z,101405.91
2023-05-07T02:38:55.193Z,101401.25
2023-05-07T02:41:24.212Z,101401.78
2023-05-07T02:43:52.364Z,101400.56
2023-05-07T02:46:21.073Z,101399.81
2023-05-07T02:48:56.957Z,101409.31
2023-05-07T02:51:26.287Z,101411.28
2023-05-07T02:53:57.688Z,101404.47
2023-05-07T02:56:27.051Z,101411.28
2023-05-07T02:58:56.545Z,101408.41
2023-05-07T03:01:28.459Z,101412.50
2023-05-07T03:04:04.508Z,101397.66
2023-05-07T03:06:33.199Z,101401.78
2023-05-07T03:09:02.399Z,101401.56
2023-05-07T03:11:31.652Z,101396.22
2023-05-07T03:13:59.845Z,101403.03
2023-05-07T03:16:28.270Z,101390.84
2023-05-07T03:18:56.786Z,101397.66
2023-05-07T03:21:25.682Z,101388.72
2023-05-07T03:23:54.574Z,101390.84
2023-05-07T03:26:23.410Z,101389.44
2023-05-07T03:28:52.297Z,101390.66
2023-05-07T03:31:21.063Z,101393.34
2023-05-07T03:33:48.980Z,101393.34
2023-05-07T03:36:18.016Z,101394.59
2023-05-07T03:38:46.404Z,101391.19
2023-05-07T03:41:17.538Z,101391.94
2023-05-07T03:43:47.499Z,101397.09
2023-05-07T03:46:16.409Z,101395.84
2023-05-07T03:48:46.143Z,101394.44
2023-05-07T03:51:16.317Z,101394.44
2023-05-07T03:53:44.456Z,101391.75
2023-05-07T03:56:12.770Z,101400.50
2023-05-07T03:58:42.818Z,101394.44
2023-05-07T04:01:12.821Z,101392.28
2023-05-07T04:03:40.995Z,101398.34
2023-05-07T04:06:08.837Z,101403.69
2023-05-07T04:08:37.866Z,101407.84
2023-05-07T04:11:08.421Z,101406.38
2023-05-07T04:13:39.097Z,101414.41
2023-05-07T04:16:09.820Z,101414.41
2023-05-07T04:18:39.991Z,101415.88
2023-05-07T04:21:09.289Z,101415.88
2023-05-07T04:23:39.343Z,101426.59
2023-05-07T04:26:12.478Z,101414.41
2023-05-07T04:28:44.300Z,101415.88
2023-05-07T04:31:14.029Z,101426.59
2023-05-07T04:33:42.800Z,101423.91
2023-05-07T04:36:14.766Z,101422.47
2023-05-07T04:38:51.769Z,101421.25
2023-05-07T04:41:21.261Z,101423.19
2023-05-07T04:43:50.908Z,101422.66
2023-05-07T04:46:22.526Z,101418.00
2023-05-07T04:48:51.598Z,101419.28
2023-05-07T04:51:20.217Z,101418.00
2023-05-07T04:53:48.680Z,101415.31
2023-05-07T04:56:17.798Z,101416.06
2023-05-07T04:58:48.188Z,101420.16
2023-05-07T05:01:19.861Z,101415.53
2023-05-07T05:03:49.050Z,101421.63
2023-05-07T05:06:18.438Z,101428.38
2023-05-07T05:08:46.921Z,101428.38
2023-05-07T05:11:15.829Z,101435.22
2023-05-07T05:13:44.511Z,101437.38
2023-05-07T05:16:18.617Z,101430.75
2023-05-07T05:18:47.820Z,101439.69
2023-05-07T05:21:19.636Z,101438.44
2023-05-07T05:23:51.273Z,101427.72
2023-05-07T05:26:22.284Z,101431.84
2023-05-07T05:28:51.210Z,101435.97
2023-05-07T05:31:22.847Z,101441.34
2023-05-07T05:33:52.883Z,101452.25
2023-05-07T05:36:21.337Z,101450.28
2023-05-07T05:38:52.444Z,101452.44
2023-05-07T05:41:21.784Z,101445.84
2023-05-07T05:43:52.254Z,101454.09
2023-05-07T05:46:24.011Z,101458.94
2023-05-07T05:48:52.945Z,101456.44
2023-05-07T05:51:21.903Z,101457.16
2023-05-07T05:53:50.362Z,101464.66
2023-05-07T05:56:19.106Z,101461.44
2023-05-07T05:58:48.111Z,101465.59
2023-05-07T06:01:17.204Z,101467.53
2023-05-07T06:03:46.303Z,101472.16
2023-05-07T06:06:16.579Z,101472.16
2023-05-07T06:08:45.996Z,101466.28
2023-05-07T06:11:18.788Z,101478.25
2023-05-07T06:13:48.674Z,101480.22
2023-05-07T06:16:17.980Z,101474.84
2023-05-07T06:18:47.264Z,101477.53
2023-05-07T06:21:17.046Z,101472.34
2023-05-07T06:23:45.966Z,101476.69
2023-05-07T06:26:14.932Z,101481.16
2023-05-07T06:28:47.573Z,101482.28
2023-05-07T06:31:18.033Z,101487.28
2023-05-07T06:34:07.314Z,101490.34
2023-05-07T06:36:39.100Z,101487.88
2023-05-07T06:39:16.992Z,101489.31
2023-05-07T06:41:45.914Z,101488.09
2023-05-07T06:44:24.150Z,101485.59
2023-05-07T06:47:08.055Z,101489.16
2023-05-07T06:49:37.530Z,101499.56
2023-05-07T06:52:05.949Z,101497.06
2023-05-07T06:54:34.819Z,101498.84
2023-05-07T06:57:03.799Z,101499.25
2023-05-07T06:59:32.709Z,101501.06
2023-05-07T07:02:01.430Z,101495.00
2023-05-07T07:04:30.433Z,101492.16
2023-05-07T07:07:03.969Z,101497.56
2023-05-07T07:09:32.177Z,101496.88
2023-05-07T07:12:01.694Z,101505.47
2023-05-07T07:14:31.525Z,101499.41
2023-05-07T07:17:00.319Z,101501.22
2023-05-07T07:19:29.563Z,101505.53
2023-05-07T07:21:59.342Z,101499.97
2023-05-07T07:24:28.605Z,101515.88
2023-05-07T07:27:00.897Z,101510.34
2023-05-07T07:29:30.411Z,101509.44
2023-05-07T07:31:59.401Z,101502.63
2023-05-07T07:34:28.453Z,101496.72
2023-05-07T07:36:57.330Z,101499.78
2023-05-07T07:39:26.557Z,101505.53
2023-05-07T07:41:57.610Z,101515.19
2023-05-07T07:44:28.439Z,101511.66
2023-05-07T07:47:01.630Z,101512.00
2023-05-07T07:49:30.678Z,101516.28
2023-05-07T07:52:03.215Z,101513.78
2023-05-07T07:54:33.116Z,101512.72
2023-05-07T07:57:02.148Z,101517.03
2023-05-07T07:59:34.332Z,101516.31
2023-05-07T08:02:02.947Z,101522.06
2023-05-07T08:04:32.932Z,101531.94
2023-05-07T08:07:04.705Z,101526.91
2023-05-07T08:09:35.412Z,101521.19
2023-05-07T08:12:05.430Z,101524.97
2023-05-07T08:14:34.950Z,101521.34
2023-05-07T08:17:04.141Z,101528.53
2023-05-07T08:19:33.443Z,101531.75
2023-05-07T08:22:02.659Z,101528.16
2023-05-07T08:24:31.590Z,101529.97
2023-05-07T08:27:01.242Z,101520.28
2023-05-07T08:29:29.762Z,101524.56
2023-05-07T08:31:58.495Z,101527.41
2023-05-07T08:34:27.497Z,101533.53
2023-05-07T08:36:57.633Z,101538.91
2023-05-07T08:39:26.722Z,101537.66
2023-05-07T08:41:56.929Z,101533.53
2023-05-07T08:44:27.514Z,101533.69
2023-05-07T08:46:57.745Z,101532.47
2023-05-07T08:49:27.440Z,101538.00
2023-05-07T08:51:56.589Z,101540.31
2023-05-07T08:54:26.420Z,101534.75
2023-05-07T08:56:55.811Z,101532.78
2023-05-07T08:59:25.115Z,101536.34
2023-05-07T09:01:54.524Z,101537.72
2023-05-07T09:04:23.486Z,101529.06
2023-05-07T09:06:52.125Z,101536.53
2023-05-07T09:09:22.196Z,101525.66
2023-05-07T09:11:54.327Z,101530.03
2023-05-07T09:14:23.089Z,101542.78
2023-05-07T09:16:51.093Z,101529.63
2023-05-07T09:19:19.599Z,101529.09
2023-05-07T09:21:48.387Z,101530.41
2023-05-07T09:24:16.839Z,101531.84
2023-05-07T09:26:46.081Z,101529.81
2023-05-07T09:29:16.489Z,101527.28
2023-05-07T09:31:45.496Z,101530.88
2023-05-07T09:34:18.209Z,101536.69
2023-05-07T09:36:48.020Z,101532.16
2023-05-07T09:39:16.828Z,101530.91
2023-05-07T09:41:45.023Z,101524.75
2023-05-07T09:44:22.990Z,101520.88
2023-05-07T09:46:53.312Z,101531.53
2023-05-07T09:49:25.915Z,101527.06
2023-05-07T09:52:01.486Z,101524.03
2023-05-07T09:54:33.703Z,101521.63
2023-05-07T09:57:07.104Z,101525.91
2023-05-07T09:59:36.633Z,101532.78
2023-05-07T10:02:08.609Z,101534.56
2023-05-07T10:04:42.508Z,101532.88
2023-05-07T10:07:11.137Z,101536.53
2023-05-07T10:09:40.128Z,101542.09
2023-05-07T10:12:13.287Z,101544.34
2023-05-07T10:14:42.088Z,101544.03
2023-05-07T10:17:10.328Z,101543.44
2023-05-07T10:19:39.357Z,101537.59
2023-05-07T10:22:08.597Z,101535.03
2023-05-07T10:24:42.087Z,101531.66
2023-05-07T10:27:16.342Z,101536.09
2023-05-07T10:29:48.456Z,101544.81
2023-05-07T10:32:17.189Z,101543.28
2023-05-07T10:34:46.130Z,101537.44
2023-05-07T10:37:15.210Z,101540.69
2023-05-07T10:39:43.813Z,101545.22
2023-05-07T10:42:12.458Z,101540.75
2023-05-07T10:44:45.604Z,101540.59
2023-05-07T10:47:21.592Z,101543.00
2023-05-07T10:49:53.322Z,101545.84
2023-05-07T10:52:26.974Z,101541.88
2023-05-07T10:55:05.202Z,101540.94
2023-05-07T10:57:34.388Z,101541.66
2023-05-07T11:00:07.960Z,101535.97
2023-05-07T11:02:36.522Z,101537.84
2023-05-07T11:05:11.148Z,101539.28
2023-05-07T11:07:39.449Z,101537.00
2023-05-07T11:10:13.626Z,101532.28
2023-05-07T11:12:48.782Z,101533.66
2023-05-07T11:15:22.081Z,101526.97
2023-05-07T11:17:51.047Z,101533.69
2023-05-07T11:20:19.794Z,101538.72
2023-05-07T11:22:54.706Z,101536.72
2023-05-07T11:25:29.210Z,101534.28
2023-05-07T11:28:06.796Z,101538.00
2023-05-07T11:30:35.633Z,101539.91
2023-05-07T11:33:05.144Z,101538.53
2023-05-07T11:35:37.173Z,101545.81
2023-05-07T11:38:09.448Z,101550.09
2023-05-07T11:40:38.478Z,101541.00
2023-05-07T11:43:07.929Z,101540.69
2023-05-07T11:45:37.356Z,101539.69
2023-05-07T11:48:06.864Z,101540.13
2023-05-07T11:50:36.263Z,101544.09
2023-05-07T11:53:05.654Z,101537.28
2023-05-07T11:55:34.453Z,101542.69
2023-05-07T11:58:02.991Z,101538.69
2023-05-07T12:00:31.097Z,101543.66
2023-05-07T12:03:00.481Z,101542.66
2023-05-07T12:05:29.512Z,101542.88
2023-05-07T12:07:58.402Z,101526.91
2023-05-07T12:10:27.673Z,101537.84
2023-05-07T12:12:56.426Z,101538.25
2023-05-07T12:15:25.358Z,101535.41
2023-05-07T12:17:54.363Z,101547.03
2023-05-07T12:20:23.173Z,101548.97
2023-05-07T12:22:52.499Z,101552.19
2023-05-07T12:25:21.863Z,101550.00
2023-05-07T12:27:50.624Z,101547.94
2023-05-07T12:30:19.465Z,101539.53
2023-05-07T12:32:48.406Z,101537.97
2023-05-07T12:35:17.310Z,101543.38
2023-05-07T12:37:46.144Z,101537.97
2023-05-07T12:40:15.393Z,101538.28
2023-05-07T12:42:44.658Z,101545.41
2023-05-07T12:45:14.532Z,101540.91
2023-05-07T12:47:43.722Z,101543.28
2023-05-07T12:50:12.665Z,101540.50
2023-05-07T12:52:41.550Z,101546.28
2023-05-07T12:55:11.033Z,101560.91
2023-05-07T12:57:40.058Z,101550.81
2023-05-07T13:00:09.103Z,101556.75
2023-05-07T13:02:37.423Z,101553.19
2023-05-07T13:05:06.333Z,101552.03
2023-05-07T13:07:34.933Z,101552.91
2023-05-07T13:10:03.665Z,101557.47
2023-05-07T13:12:33.112Z,101563.75
2023-05-07T13:15:02.508Z,101557.91
2023-05-07T13:17:31.920Z,101559.41
2023-05-07T13:20:01.469Z,101557.72
2023-05-07T13:22:30.346Z,101555.78
2023-05-07T13:24:59.107Z,101565.69
2023-05-07T13:27:28.714Z,101558.91
2023-05-07T13:29:57.720Z,101563.22
2023-05-07T13:32:27.174Z,101567.06
2023-05-07T13:34:56.482Z,101566.63
2023-05-07T13:37:25.870Z,101564.03
2023-05-07T13:39:55.262Z,101567.47
2023-05-07T13:42:24.599Z,101564.19
2023-05-07T13:44:54.108Z,101558.06
2023-05-07T13:47:24.660Z,101565.00
2023-05-07T13:49:54.170Z,101555.03
2023-05-07T13:52:23.159Z,101552.66
2023-05-07T13:54:52.591Z,101556.59
2023-05-07T13:57:21.887Z,101558.75
2023-05-07T13:59:51.039Z,101564.81
2023-05-07T14:02:20.461Z,101558.53
2023-05-07T14:04:49.529Z,101554.38
2023-05-07T14:07:18.043Z,101552.34
2023-05-07T14:09:47.524Z,101562.13
2023-05-07T14:12:16.102Z,101566.94
2023-05-07T14:14:44.749Z,101560.50
2023-05-07T14:17:14.096Z,101558.38
2023-05-07T14:19:43.523Z,101559.94
2023-05-07T14:22:12.370Z,101558.38
2023-05-07T14:24:41.270Z,101557.06
2023-05-07T14:27:09.895Z,101565.91
2023-05-07T14:29:37.862Z,101572.59
2023-05-07T14:32:06.583Z,101563.78
2023-05-07T14:34:35.929Z,101572.19
2023-05-07T14:37:05.358Z,101574.81
2023-05-07T14:39:34.745Z,101576.72
2023-05-07T14:42:04.250Z,101572.09
2023-05-07T14:44:33.916Z,101578.28
2023-05-07T14:47:03.405Z,101584.44
2023-05-07T14:49:32.851Z,101581.25
2023-05-07T14:52:02.050Z,101589.94
2023-05-07T14:54:30.769Z,101583.47
2023-05-07T14:57:00.294Z,101589.78
2023-05-07T14:59:29.721Z,101593.59
2023-05-07T15:01:58.977Z,101602.63
2023-05-07T15:04:28.018Z,101591.16
2023-05-07T15:06:57.377Z,101587.25
2023-05-07T15:09:26.761Z,101587.81
2023-05-07T15:11:56.175Z,101590.91
2023-05-07T15:14:25.789Z,101595.22
2023-05-07T15:16:55.257Z,101590.41
2023-05-07T15:19:24.650Z,101593.88
2023-05-07T15:21:53.972Z,101598.41
2023-05-07T15:24:23.310Z,101602.91
2023-05-07T15:26:52.574Z,101601.38
2023-05-07T15:29:21.841Z,101605.19
2023-05-07T15:31:50.700Z,101598.75
2023-05-07T15:34:19.584Z,101599.13
2023-05-07T15:36:48.565Z,101607.75
2023-05-07T15:39:18.137Z,101623.19
2023-05-07T15:41:47.027Z,101633.25
2023-05-07T15:44:15.736Z,101643.28
2023-05-07T15:46:45.016Z,101642.59
2023-05-07T15:49:14.511Z,101650.13
2023-05-07T15:51:43.412Z,101656.91
2023-05-07T15:54:12.157Z,101666.41
2023-05-07T15:56:41.444Z,101679.50
2023-05-07T15:59:11.399Z,101685.94
2023-05-07T16:01:40.473Z,101687.56
2023-05-07T16:04:09.789Z,101694.50
2023-05-07T16:06:39.130Z,101709.22
2023-05-07T16:09:08.109Z,101711.53
2023-05-07T16:11:37.537Z,101713.84
2023-05-07T16:14:06.329Z,101714.94
2023-05-07T16:16:35.400Z,101710.59
2023-05-07T16:19:04.175Z,101709.00
2023-05-07T16:21:33.580Z,101703.38
2023-05-07T16:24:02.890Z,101696.59
2023-05-07T16:26:32.076Z,101700.53
2023-05-07T16:29:00.908Z,101694.25
2023-05-07T16:31:30.265Z,101696.22
2023-05-07T16:33:59.513Z,101698.72
2023-05-07T16:36:28.744Z,101698.72
2023-05-07T16:38:58.100Z,101699.97
2023-05-07T16:41:27.442Z,101703.19
2023-05-07T16:43:56.552Z,101705.69
2023-05-07T16:46:31.170Z,101703.53
2023-05-07T16:48:59.965Z,101707.44
2023-05-07T16:51:28.734Z,101704.75
2023-05-07T16:53:57.985Z,101705.09
2023-05-07T16:56:26.436Z,101709.75
2023-05-07T16:58:55.134Z,101701.53
2023-05-07T17:01:24.104Z,101710.84
2023-05-07T17:03:52.998Z,101709.41
2023-05-07T17:06:22.069Z,101705.78
2023-05-07T17:08:51.331Z,101703.66
2023-05-07T17:11:20.583Z,101696.13
2023-05-07T17:13:49.901Z,101701.50
2023-05-07T17:16:19.020Z,101700.75
2023-05-07T17:18:47.310Z,101700.06
2023-05-07T17:21:16.509Z,101692.00
2023-05-07T17:23:45.392Z,101698.63
2023-05-07T17:26:14.405Z,101695.22
2023-05-07T17:28:43.164Z,101692.69
2023-05-07T17:31:12.601Z,101696.84
2023-05-07T17:33:41.860Z,101689.47
2023-05-07T17:36:11.243Z,101683.63
2023-05-07T17:38:40.757Z,101694.34
2023-05-07T17:41:10.030Z,101705.78
2023-05-07T17:43:39.306Z,101710.47
2023-05-07T17:46:08.712Z,101701.88
2023-05-07T17:48:37.510Z,101700.41
2023-05-07T17:51:06.967Z,101703.81
2023-05-07T17:53:36.227Z,101709.41
2023-05-07T17:56:05.022Z,101710.84
2023-05-07T17:58:41.529Z,101716.41
2023-05-07T18:01:22.329Z,101713.72
2023-05-07T18:03:51.952Z,101717.63
2023-05-07T18:06:21.595Z,101716.22
2023-05-07T18:08:50.966Z,101721.59
2023-05-07T18:11:20.312Z,101718.72
2023-05-07T18:13:49.174Z,101717.25
2023-05-07T18:16:18.056Z,101719.78
2023-05-07T18:18:47.409Z,101716.88
2023-05-07T18:21:16.704Z,101724.75
2023-05-07T18:23:45.953Z,101724.38
2023-05-07T18:26:19.169Z,101726.16
2023-05-07T18:28:50.257Z,101727.94
2023-05-07T18:31:19.435Z,101723.59
2023-05-07T18:33:48.233Z,101726.84
2023-05-07T18:36:17.620Z,101723.25
2023-05-07T18:38:46.913Z,101719.63
2023-05-07T18:41:15.929Z,101718.72
2023-05-07T18:43:44.545Z,101719.25
2023-05-07T18:46:14.016Z,101721.00
2023-05-07T18:48:43.469Z,101726.38
2023-05-07T18:51:12.888Z,101731.56
2023-05-07T18:53:41.971Z,101730.66
2023-05-07T18:56:10.746Z,101723.13
2023-05-07T18:58:39.808Z,101732.44
2023-05-07T19:01:08.900Z,101733.69
2023-05-07T19:03:38.328Z,101731.69
2023-05-07T19:06:07.690Z,101729.56
2023-05-07T19:08:36.558Z,101736.16
2023-05-07T19:11:05.910Z,101735.97
2023-05-07T19:13:35.351Z,101738.44
2023-05-07T19:16:04.782Z,101730.22
2023-05-07T19:18:34.045Z,101731.47
2023-05-07T19:21:03.014Z,101728.06
2023-05-07T19:23:31.707Z,101731.25
2023-05-07T19:26:01.092Z,101735.19
2023-05-07T19:28:29.923Z,101728.38
2023-05-07T19:30:58.832Z,101731.38
2023-05-07T19:33:28.201Z,101739.44
2023-05-07T19:35:57.135Z,101742.69
2023-05-07T19:38:26.517Z,101746.59
2023-05-07T19:40:55.773Z,101755.88
2023-05-07T19:43:25.142Z,101759.81
2023-05-07T19:45:53.767Z,101758.38
2023-05-07T19:48:22.011Z,101762.28
2023-05-07T19:50:51.224Z,101771.59
2023-05-07T19:53:20.543Z,101775.53
2023-05-07T19:55:49.977Z,101783.38
2023-05-07T19:58:18.760Z,101787.34
2023-05-07T20:00:47.640Z,101795.16
2023-05-07T20:03:16.492Z,101785.66
2023-05-07T20:05:45.625Z,101788.34
2023-05-07T20:08:14.356Z,101790.84
2023-05-07T20:10:43.177Z,101795.47
2023-05-07T20:13:12.086Z,101800.13
2023-05-07T20:15:41.389Z,101800.13
2023-05-07T20:18:10.163Z,101797.28
2023-05-07T20:20:39.512Z,101795.81
2023-05-07T20:23:08.734Z,101799.78
2023-05-07T20:25:37.823Z,101802.44
2023-05-07T20:28:06.257Z,101809.03
2023-05-07T20:30:34.848Z,101813.69
2023-05-07T20:33:04.126Z,101818.34
2023-05-07T20:35:33.517Z,101814.19
2023-05-07T20:38:02.330Z,101814.19
2023-05-07T20:40:31.626Z,101815.47
2023-05-07T20:43:00.354Z,101820.84
2023-05-07T20:45:29.532Z,101814.00
2023-05-07T20:47:58.748Z,101807.19
2023-05-07T20:50:27.903Z,101807.19
2023-05-07T20:52:56.641Z,101799.84
2023-05-07T20:55:25.569Z,101809.88
2023-05-07T20:57:54.178Z,101800.38
2023-05-07T21:00:23.542Z,101811.09
2023-05-07T21:02:52.922Z,101815.78
2023-05-07T21:05:21.816Z,101813.59
2023-05-07T21:07:51.128Z,101822.38
2023-05-07T21:10:20.662Z,101817.50
2023-05-07T21:12:50.231Z,101825.56
2023-05-07T21:15:19.235Z,101821.47
2023-05-07T21:17:48.013Z,101818.78
2023-05-07T21:20:17.356Z,101821.47
2023-05-07T21:22:47.703Z,101815.38
2023-05-07T21:25:17.617Z,101824.66
2023-05-07T21:27:46.845Z,101833.19
2023-05-07T21:30:16.218Z,101838.09
2023-05-07T21:32:45.657Z,101846.84
2023-05-07T21:35:14.572Z,101840.03
2023-05-07T21:37:43.805Z,101844.66
2023-05-07T21:40:12.730Z,101842.72
2023-05-07T21:42:41.631Z,101834.25
2023-05-07T21:45:10.861Z,101840.56
2023-05-07T21:47:40.148Z,101836.44
2023-05-07T21:50:09.515Z,101839.84
2023-05-07T21:52:38.834Z,101835.69
2023-05-07T21:55:07.403Z,101839.63
2023-05-07T21:57:36.015Z,101839.63
2023-05-07T22:00:04.782Z,101840.88
2023-05-07T22:02:33.410Z,101834.25
2023-05-07T22:05:01.821Z,101836.75
2023-05-07T22:07:30.077Z,101836.75
2023-05-07T22:09:59.436Z,101843.56
2023-05-07T22:12:28.509Z,101842.84
2023-05-07T22:14:57.051Z,101842.84
2023-05-07T22:17:26.370Z,101844.81
2023-05-07T22:19:55.233Z,101846.03
2023-05-07T22:22:24.390Z,101840.66
2023-05-07T22:24:53.868Z,101840.66
2023-05-07T22:27:23.203Z,101850.69
2023-05-07T22:29:51.899Z,101849.94
2023-05-07T22:32:20.900Z,101847.28
2023-05-07T22:34:49.504Z,101849.25
2023-05-07T22:37:18.726Z,101848.50
2023-05-07T22:39:48.056Z,101853.88
2023-05-07T22:42:17.313Z,101847.06
2023-05-07T22:44:46.539Z,101856.56
2023-05-07T22:47:15.069Z,101852.97
2023-05-07T22:49:43.755Z,101863.19
2023-05-07T22:52:12.993Z,101860.31
2023-05-07T22:54:42.388Z,101857.63
2023-05-07T22:57:11.579Z,101860.31
2023-05-07T22:59:40.500Z,101862.25
2023-05-07T23:02:09.308Z,101852.75
2023-05-07T23:04:38.573Z,101860.09
2023-05-07T23:07:07.508Z,101864.19
2023-05-07T23:09:36.124Z,101861.31
2023-05-07T23:12:04.965Z,101858.63
2023-05-07T23:14:34.173Z,101862.56
2023-05-07T23:17:03.173Z,101865.25
2023-05-07T23:19:31.454Z,101865.25
2023-05-07T23:22:00.852Z,101865.25
2023-05-07T23:24:29.630Z,101863.78
2023-05-07T23:26:58.935Z,101874.53
2023-05-07T23:29:28.280Z,101869.16
2023-05-07T23:31:57.657Z,101877.00
2023-05-07T23:34:26.955Z,101873.09
2023-05-07T23:36:56.264Z,101874.53
2023-05-07T23:39:25.591Z,101868.97
2023-05-07T23:41:54.892Z,101858.25
2023-05-07T23:44:23.673Z,101864.13
2023-05-07T23:46:52.863Z,101852.66
2023-05-07T23:49:21.708Z,101862.16
2023-05-07T23:51:50.583Z,101859.47
2023-05-07T23:54:19.516Z,101863.38
2023-05-07T23:56:48.243Z,101868.75
2023-05-07T23:59:16.952Z,101863.38
